Terminal Aerodrome Forecast
Issued by NWS Portland, OR

Home | Current Version | Previous Version | Text Only | Print | Product List | Glossary On
Versions: 1 2 3 4 5 6 7 8 9 10 11 12 13 14 15 16 17 18 19 20 21 22 23 24
000
FTUS46 KPQR 232330
TAFEUG
TAF
KEUG 232330Z 2400/2424 20005KT P6SM -SHRASN SCT030 BKN060
     FM240400 00000KT P6SM SCT030 SCT060
     FM240900 00000KT 5SM MIFG BKN004 BKN060
      TEMPO 2410/2414 2SM BR
     FM241500 VRB03KT P6SM VCSH SCT006 BKN060
     FM241800 16004KT P6SM -SHRASN BKN030 BKN060=

USA.gov is the U.S. government's official web portal to all federal, state and local government web resources and services.